TimeMST,TemperatureF,Dew PointF,Humidity,Sea Level PressureIn,VisibilityMPH,Wind Direction,Wind SpeedMPH,Gust SpeedMPH,PrecipitationIn,Events,Conditions,WindDirDegrees,DateUTC
12:00 AM,41.2,24.4,51,-9999,-9999.0,West,13.8,23.0,N/A,,Unknown,260,2013-01-17 07:00:00
1:00 AM,40.6,23.9,51,-9999,-9999.0,West,12.7,19.6,N/A,,Unknown,260,2013-01-17 08:00:00
2:00 AM,40.6,23.9,51,-9999,-9999.0,West,17.3,27.6,N/A,,Unknown,260,2013-01-17 09:00:00
3:00 AM,41.2,23.0,48,-9999,-9999.0,West,15.0,21.9,N/A,,Unknown,260,2013-01-17 10:00:00
4:00 AM,42.3,23.0,47,-9999,-9999.0,WSW,10.4,-,N/A,,Unknown,250,2013-01-17 11:00:00
5:00 AM,42,23,34,,,West,11.5,,,,,260,2013-01-17 12:00:00
5:00 AM,42.3,23.2,47,-9999,-9999.0,West,11.5,18.4,N/A,,Unknown,260,2013-01-17 12:00:00
6:00 AM,43.3,22.8,44,-9999,-9999.0,West,19.6,28.8,N/A,,Unknown,260,2013-01-17 13:00:00
7:00 AM,43.9,23.4,44,-9999,-9999.0,West,17.3,24.2,N/A,,Unknown,260,2013-01-17 14:00:00
8:00 AM,43.5,23.2,45,-9999,-9999.0,West,19.6,27.6,N/A,,Unknown,270,2013-01-17 15:00:00
9:00 AM,44.1,22.5,42,-9999,-9999.0,West,17.3,24.2,N/A,,Unknown,260,2013-01-17 16:00:00
10:00 AM,47.1,22.3,38,-9999,-9999.0,West,21.9,29.9,N/A,,Unknown,260,2013-01-17 17:00:00
11:00 AM,47,21,23,,,West,18.4,,,,,270,2013-01-17 18:00:00
11:00 AM,47.5,21.2,35,-9999,-9999.0,West,18.4,27.6,N/A,,Unknown,270,2013-01-17 18:00:00
12:00 PM,47.1,21.9,37,-9999,-9999.0,West,18.4,26.5,N/A,,Unknown,270,2013-01-17 19:00:00
1:00 PM,49.3,21.6,34,-9999,-9999.0,West,16.1,27.6,N/A,,Unknown,270,2013-01-17 20:00:00
2:00 PM,48.0,22.5,37,-9999,-9999.0,West,20.7,36.8,N/A,,Unknown,260,2013-01-17 21:00:00
3:00 PM,48.6,23.5,37,-9999,-9999.0,West,18.4,26.5,N/A,,Unknown,260,2013-01-17 22:00:00
4:00 PM,45.7,22.5,40,-9999,-9999.0,SW,13.8,-,N/A,,Unknown,230,2013-01-17 23:00:00
5:00 PM,41,23,36,,,South,13.8,,,,,180,2013-01-18 00:00:00
5:00 PM,41.2,23.0,48,-9999,-9999.0,South,13.8,19.6,N/A,,Unknown,180,2013-01-18 00:00:00
6:00 PM,36.0,24.1,62,-9999,-9999.0,South,6.9,-,N/A,,Unknown,170,2013-01-18 01:00:00
7:00 PM,40.5,19.9,44,-9999,-9999.0,SW,9.2,-,N/A,,Unknown,230,2013-01-18 02:00:00
8:00 PM,39.6,20.1,46,-9999,-9999.0,WSW,11.5,-,N/A,,Unknown,240,2013-01-18 03:00:00
9:00 PM,44.4,18.0,35,-9999,-9999.0,WSW,13.8,21.9,N/A,,Unknown,250,2013-01-18 04:00:00
10:00 PM,43.7,17.2,35,-9999,-9999.0,West,16.1,25.3,N/A,,Unknown,260,2013-01-18 05:00:00
11:00 PM,44,16,19,,,West,21.9,,,,,260,2013-01-18 06:00:00
11:00 PM,44.1,15.8,32,-9999,-9999.0,West,21.9,32.2,N/A,,Unknown,260,2013-01-18 06:00:00